createdAt,value
2022-09-17T00:00:57.395Z,11.67
2022-09-17T00:01:57.391Z,11.69
2022-09-17T00:02:57.449Z,11.66
2022-09-17T00:03:57.588Z,11.62
2022-09-17T00:04:57.350Z,11.62
2022-09-17T00:05:57.328Z,11.64
2022-09-17T00:06:57.333Z,11.57
2022-09-17T00:07:57.316Z,11.49
2022-09-17T00:08:57.306Z,11.51
2022-09-17T00:09:57.286Z,11.48
2022-09-17T00:10:57.279Z,11.53
2022-09-17T00:11:57.274Z,11.56
2022-09-17T00:12:57.249Z,11.59
2022-09-17T00:13:57.332Z,11.57
2022-09-17T00:14:57.256Z,11.59
2022-09-17T00:15:57.250Z,11.62
2022-09-17T00:17:01.689Z,11.54
2022-09-17T00:17:57.197Z,11.57
2022-09-17T00:18:57.181Z,11.56
2022-09-17T00:19:57.206Z,11.56
2022-09-17T00:20:57.167Z,11.54
2022-09-17T00:21:57.201Z,11.54
2022-09-17T00:22:57.131Z,11.54
2022-09-17T00:23:57.120Z,11.49
2022-09-17T00:24:57.148Z,11.48
2022-09-17T00:25:57.139Z,11.45
2022-09-17T00:26:57.079Z,11.46
2022-09-17T00:27:57.078Z,11.44
2022-09-17T00:28:57.064Z,11.48
2022-09-17T00:29:57.073Z,11.49
2022-09-17T00:30:57.113Z,11.44
2022-09-17T00:31:57.022Z,11.42
2022-09-17T00:32:57.029Z,11.44
2022-09-17T00:33:57.008Z,11.46
2022-09-17T00:34:56.998Z,11.44
2022-09-17T00:35:57.027Z,11.45
2022-09-17T00:36:56.979Z,11.44
2022-09-17T00:37:56.956Z,11.42
2022-09-17T00:38:56.948Z,11.44
2022-09-17T00:39:57.048Z,11.46
2022-09-17T00:40:56.939Z,11.46
2022-09-17T00:41:56.932Z,11.49
2022-09-17T00:42:56.906Z,11.46
2022-09-17T00:43:56.882Z,11.46
2022-09-17T00:44:56.905Z,11.46
2022-09-17T00:45:56.914Z,11.44
2022-09-17T00:46:56.939Z,11.44
2022-09-17T00:47:56.849Z,11.42
2022-09-17T00:48:56.858Z,11.42
2022-09-17T00:49:56.813Z,11.41
2022-09-17T00:50:56.840Z,11.44
2022-09-17T00:52:00.264Z,11.46
2022-09-17T00:52:56.790Z,11.45
2022-09-17T00:53:56.801Z,11.45
2022-09-17T00:54:56.825Z,11.45
2022-09-17T00:55:56.756Z,11.42
2022-09-17T00:56:56.831Z,11.39
2022-09-17T00:57:56.733Z,11.41
2022-09-17T00:58:56.731Z,11.39
2022-09-17T00:59:56.707Z,11.39
2022-09-17T01:00:56.762Z,11.39
2022-09-17T01:01:56.774Z,11.41
2022-09-17T01:02:56.679Z,11.41
2022-09-17T01:03:56.675Z,11.38
2022-09-17T01:04:56.656Z,11.36
2022-09-17T01:05:56.637Z,11.38
2022-09-17T01:06:56.673Z,11.36
2022-09-17T01:07:56.616Z,11.38
2022-09-17T01:08:56.611Z,11.39
2022-09-17T01:09:56.582Z,11.41
2022-09-17T01:10:56.575Z,11.38
2022-09-17T01:11:56.564Z,11.38
2022-09-17T01:12:56.601Z,11.36
2022-09-17T01:13:56.549Z,11.35
2022-09-17T01:14:56.548Z,11.36
2022-09-17T01:15:56.692Z,11.39
2022-09-17T01:16:56.525Z,11.36
2022-09-17T01:17:56.541Z,11.31
2022-09-17T01:18:56.484Z,11.36
2022-09-17T01:19:56.472Z,11.38
2022-09-17T01:20:56.507Z,11.36
2022-09-17T01:21:56.461Z,11.31
2022-09-17T01:22:56.501Z,11.27
2022-09-17T01:23:56.428Z,11.27
2022-09-17T01:24:56.426Z,11.26
2022-09-17T01:25:56.407Z,11.23
2022-09-17T01:26:56.404Z,11.21
2022-09-17T01:27:56.401Z,11.17
2022-09-17T01:28:56.397Z,11.19
2022-09-17T01:29:56.396Z,11.17
2022-09-17T01:30:56.360Z,11.16
2022-09-17T01:31:56.352Z,11.11
2022-09-17T01:32:56.346Z,11.11
2022-09-17T01:33:56.349Z,11.08
2022-09-17T01:34:56.305Z,11.08
2022-09-17T01:35:56.303Z,11.09
2022-09-17T01:36:56.283Z,11.08
2022-09-17T01:37:56.272Z,11.08
2022-09-17T01:38:56.323Z,11.06
2022-09-17T01:39:56.314Z,11.08
2022-09-17T01:40:56.239Z,11.08
2022-09-17T01:41:56.250Z,11.02
2022-09-17T01:42:56.220Z,11.02
2022-09-17T01:43:56.249Z,11.03
2022-09-17T01:44:56.191Z,11.05
2022-09-17T01:45:56.182Z,11.03
2022-09-17T01:46:56.243Z,11.05
2022-09-17T01:47:56.162Z,10.99
2022-09-17T01:48:56.139Z,10.99
2022-09-17T01:49:56.155Z,10.94
2022-09-17T01:50:56.130Z,10.94
2022-09-17T01:51:56.103Z,10.90
2022-09-17T01:52:56.102Z,10.90
2022-09-17T01:53:56.102Z,10.88
2022-09-17T01:54:56.110Z,10.83
2022-09-17T01:55:56.064Z,10.86
2022-09-17T01:56:56.077Z,10.84
2022-09-17T01:57:56.056Z,10.84
2022-09-17T01:58:56.033Z,10.86
2022-09-17T01:59:56.044Z,10.84
2022-09-17T02:00:56.084Z,10.86
2022-09-17T02:01:56.083Z,10.81
2022-09-17T02:02:55.989Z,10.80
2022-09-17T02:03:56.037Z,10.81
2022-09-17T02:04:55.984Z,10.80
2022-09-17T02:05:55.976Z,10.75
2022-09-17T02:06:55.952Z,10.75
2022-09-17T02:07:55.924Z,10.70
2022-09-17T02:08:55.937Z,10.72
2022-09-17T02:09:55.909Z,10.73
2022-09-17T02:10:55.914Z,10.70
2022-09-17T02:11:55.881Z,10.73
2022-09-17T02:12:55.882Z,10.70
2022-09-17T02:13:55.857Z,10.69
2022-09-17T02:14:55.866Z,10.69
2022-09-17T02:15:55.923Z,10.69
2022-09-17T02:16:55.861Z,10.69
2022-09-17T02:17:55.808Z,10.68
2022-09-17T02:18:55.837Z,10.66
2022-09-17T02:19:55.832Z,10.65
2022-09-17T02:20:55.817Z,10.68
2022-09-17T02:21:55.798Z,10.69
2022-09-17T02:22:55.830Z,10.68
2022-09-17T02:23:55.751Z,10.66
2022-09-17T02:24:55.762Z,10.65
2022-09-17T02:25:55.731Z,10.62
2022-09-17T02:26:55.739Z,10.60
2022-09-17T02:27:55.719Z,10.60
2022-09-17T02:28:55.689Z,10.62
2022-09-17T02:29:55.684Z,10.58
2022-09-17T02:30:55.723Z,10.57
2022-09-17T02:31:55.730Z,10.55
2022-09-17T02:32:55.656Z,10.57
2022-09-17T02:33:55.656Z,10.57
2022-09-17T02:34:55.617Z,10.54
2022-09-17T02:35:55.654Z,10.55
2022-09-17T02:36:55.640Z,10.55
2022-09-17T02:37:55.609Z,10.52
2022-09-17T02:38:55.601Z,10.49
2022-09-17T02:39:55.618Z,10.47
2022-09-17T02:40:55.570Z,10.43
2022-09-17T02:41:55.565Z,10.42
2022-09-17T02:42:55.565Z,10.42
2022-09-17T02:43:55.520Z,10.42
2022-09-17T02:44:55.554Z,10.44
2022-09-17T02:45:55.515Z,10.44
2022-09-17T02:46:55.580Z,10.46
2022-09-17T02:47:55.510Z,10.43
2022-09-17T02:48:55.470Z,10.46
2022-09-17T02:49:55.464Z,10.43
2022-09-17T02:50:55.445Z,10.39
2022-09-17T02:51:55.457Z,10.36
2022-09-17T02:52:55.449Z,10.35
2022-09-17T02:53:55.406Z,10.35
2022-09-17T02:54:55.430Z,10.34
2022-09-17T02:55:55.391Z,10.35
2022-09-17T02:56:55.380Z,10.35
2022-09-17T02:57:55.403Z,10.36
2022-09-17T02:58:55.407Z,10.34
2022-09-17T02:59:55.352Z,10.31
2022-09-17T03:00:55.407Z,10.31
2022-09-17T03:01:55.387Z,10.29
2022-09-17T03:02:55.300Z,10.26
2022-09-17T03:03:55.326Z,10.26
2022-09-17T03:04:55.296Z,10.26
2022-09-17T03:05:55.281Z,10.25
2022-09-17T03:06:55.296Z,10.25
2022-09-17T03:07:55.258Z,10.26
2022-09-17T03:08:55.262Z,10.25
2022-09-17T03:09:55.234Z,10.26
2022-09-17T03:10:55.242Z,10.25
2022-09-17T03:11:55.218Z,10.24
2022-09-17T03:12:55.194Z,10.18
2022-09-17T03:13:55.210Z,10.20
2022-09-17T03:14:55.177Z,10.24
2022-09-17T03:15:55.199Z,10.26
2022-09-17T03:16:55.183Z,10.25
2022-09-17T03:17:55.136Z,10.20
2022-09-17T03:18:55.138Z,10.18
2022-09-17T03:19:55.130Z,10.17
2022-09-17T03:20:55.133Z,10.18
2022-09-17T03:21:55.094Z,10.18
2022-09-17T03:22:55.088Z,10.18
2022-09-17T03:23:55.083Z,10.22
2022-09-17T03:24:55.077Z,10.17
2022-09-17T03:25:55.043Z,10.18
2022-09-17T03:26:55.051Z,10.18
2022-09-17T03:27:55.023Z,10.14
2022-09-17T03:28:55.022Z,10.10
2022-09-17T03:29:55.021Z,10.13
2022-09-17T03:30:55.011Z,10.13
2022-09-17T03:31:54.969Z,10.13
2022-09-17T03:32:54.972Z,10.14
2022-09-17T03:33:54.947Z,10.13
2022-09-17T03:34:54.954Z,10.16
2022-09-17T03:35:54.954Z,10.16
2022-09-17T03:36:54.924Z,10.10
2022-09-17T03:37:54.918Z,10.11
2022-09-17T03:38:54.889Z,10.10
2022-09-17T03:39:55.020Z,10.13
2022-09-17T03:40:54.890Z,10.10
2022-09-17T03:41:54.863Z,10.13
2022-09-17T03:42:54.847Z,10.14
2022-09-17T03:43:54.843Z,10.14
2022-09-17T03:44:54.843Z,10.16
2022-09-17T03:45:54.864Z,10.14
2022-09-17T03:46:54.905Z,10.13
2022-09-17T03:47:54.805Z,10.11
2022-09-17T03:48:54.799Z,10.10
2022-09-17T03:49:54.764Z,10.10
2022-09-17T03:50:54.823Z,10.11
2022-09-17T03:51:54.781Z,10.13
2022-09-17T03:52:54.745Z,10.13
2022-09-17T03:53:54.724Z,10.14
2022-09-17T03:54:54.741Z,10.14
2022-09-17T03:55:54.715Z,10.16
2022-09-17T03:56:54.713Z,10.17
2022-09-17T03:57:54.678Z,10.16
2022-09-17T03:58:54.678Z,10.13
2022-09-17T03:59:54.666Z,10.14
2022-09-17T04:00:54.646Z,10.13
2022-09-17T04:01:54.892Z,10.13
2022-09-17T04:02:54.693Z,10.11
2022-09-17T04:03:54.672Z,10.11
2022-09-17T04:04:54.601Z,10.10
2022-09-17T04:05:54.595Z,10.11
2022-09-17T04:06:54.611Z,10.11
2022-09-17T04:07:54.572Z,10.10
2022-09-17T04:08:54.588Z,10.07
2022-09-17T04:09:54.580Z,10.09
2022-09-17T04:10:54.537Z,10.09
2022-09-17T04:11:54.525Z,10.09
2022-09-17T04:12:54.529Z,10.10
2022-09-17T04:13:54.503Z,10.10
2022-09-17T04:14:54.497Z,10.13
2022-09-17T04:15:54.516Z,10.14
2022-09-17T04:16:54.461Z,10.14
2022-09-17T04:17:54.496Z,10.13
2022-09-17T04:18:54.455Z,10.10
2022-09-17T04:19:54.441Z,10.09
2022-09-17T04:20:54.458Z,10.10
2022-09-17T04:21:54.437Z,10.10
2022-09-17T04:22:54.442Z,10.10
2022-09-17T04:23:54.459Z,10.09
2022-09-17T04:24:54.390Z,10.11
2022-09-17T04:25:54.371Z,10.13
2022-09-17T04:26:54.350Z,10.13
2022-09-17T04:27:54.364Z,10.11
2022-09-17T04:28:54.338Z,10.10
2022-09-17T04:29:54.322Z,10.11
2022-09-17T04:30:54.366Z,10.10
2022-09-17T04:31:54.293Z,10.09
2022-09-17T04:32:54.326Z,10.09
2022-09-17T04:33:54.298Z,10.09
2022-09-17T04:34:54.280Z,10.10
2022-09-17T04:35:54.276Z,10.11
2022-09-17T04:36:54.245Z,10.09
2022-09-17T04:37:54.266Z,10.10
2022-09-17T04:38:54.242Z,10.13
2022-09-17T04:39:54.217Z,10.13
2022-09-17T04:40:54.228Z,10.14
2022-09-17T04:41:54.199Z,10.11
2022-09-17T04:42:54.175Z,10.14
2022-09-17T04:43:54.196Z,10.13
2022-09-17T04:44:54.161Z,10.11
2022-09-17T04:45:54.147Z,10.11
2022-09-17T04:46:54.169Z,10.11
2022-09-17T04:47:54.110Z,10.10
2022-09-17T04:48:54.122Z,10.09
2022-09-17T04:49:54.126Z,10.11
2022-09-17T04:50:54.082Z,10.13
2022-09-17T04:51:54.069Z,10.13
2022-09-17T04:52:54.100Z,10.13
2022-09-17T04:53:54.073Z,10.11
2022-09-17T04:54:54.026Z,10.11
2022-09-17T04:55:54.030Z,10.11
2022-09-17T04:56:54.024Z,10.10
2022-09-17T04:57:54.012Z,10.11
2022-09-17T04:58:53.984Z,10.09
2022-09-17T04:59:54.003Z,10.10
2022-09-17T05:00:54.049Z,10.09
2022-09-17T05:01:54.069Z,10.11
2022-09-17T05:02:53.950Z,10.09
2022-09-17T05:03:53.933Z,10.09
2022-09-17T05:04:53.974Z,10.07
2022-09-17T05:05:53.916Z,10.09
2022-09-17T05:06:53.908Z,10.10
2022-09-17T05:07:53.883Z,10.10
2022-09-17T05:08:53.892Z,10.11
2022-09-17T05:09:53.893Z,10.11
2022-09-17T05:10:53.854Z,10.09
2022-09-17T05:11:53.846Z,10.10
2022-09-17T05:12:53.840Z,10.09
2022-09-17T05:13:53.837Z,10.10
2022-09-17T05:14:53.814Z,10.10
2022-09-17T05:15:53.939Z,10.10
2022-09-17T05:16:53.795Z,10.09
2022-09-17T05:17:53.800Z,10.11
2022-09-17T05:18:53.798Z,10.14
2022-09-17T05:19:53.758Z,10.13
2022-09-17T05:20:53.770Z,10.14
2022-09-17T05:21:53.729Z,10.13
2022-09-17T05:22:53.724Z,10.14
2022-09-17T05:23:53.710Z,10.14
2022-09-17T05:24:53.736Z,10.17
2022-09-17T05:25:53.719Z,10.17
2022-09-17T05:26:53.666Z,10.16
2022-09-17T05:27:53.659Z,10.17
2022-09-17T05:28:53.638Z,10.17
2022-09-17T05:29:53.646Z,10.17
2022-09-17T05:30:53.682Z,10.17
2022-09-17T05:31:53.640Z,10.17
2022-09-17T05:32:53.604Z,10.17
2022-09-17T05:33:53.607Z,10.18
2022-09-17T05:34:53.584Z,10.20
2022-09-17T05:35:53.581Z,10.20
2022-09-17T05:36:53.555Z,10.24
2022-09-17T05:37:53.576Z,10.18
2022-09-17T05:38:53.544Z,10.18
2022-09-17T05:39:53.568Z,10.22
2022-09-17T05:40:53.572Z,10.22
2022-09-17T05:41:53.512Z,10.22
2022-09-17T05:42:53.503Z,10.22
2022-09-17T05:43:53.481Z,10.20
2022-09-17T05:44:53.490Z,10.25
2022-09-17T05:45:53.462Z,10.25
2022-09-17T05:46:53.547Z,10.25
2022-09-17T05:47:53.437Z,10.25
2022-09-17T05:48:53.437Z,10.25
2022-09-17T05:49:53.410Z,10.24
2022-09-17T05:50:53.406Z,10.26
2022-09-17T05:51:53.435Z,10.28
2022-09-17T05:52:53.396Z,10.28
2022-09-17T05:53:53.372Z,10.26
2022-09-17T05:54:53.348Z,10.26
2022-09-17T05:55:53.330Z,10.26
2022-09-17T05:56:53.402Z,10.28
2022-09-17T05:57:53.322Z,10.29
2022-09-17T05:58:53.306Z,10.29
2022-09-17T05:59:53.317Z,10.29
2022-09-17T06:00:53.294Z,10.28
2022-09-17T06:01:53.338Z,10.32
2022-09-17T06:02:53.358Z,10.35
2022-09-17T06:03:53.250Z,10.36
2022-09-17T06:04:53.264Z,10.38
2022-09-17T06:05:53.271Z,10.36
2022-09-17T06:06:53.218Z,10.34
2022-09-17T06:07:53.242Z,10.34
2022-09-17T06:08:53.219Z,10.35
2022-09-17T06:09:53.179Z,10.34
2022-09-17T06:10:53.193Z,10.35
2022-09-17T06:11:53.169Z,10.31
2022-09-17T06:12:53.178Z,10.34
2022-09-17T06:13:53.163Z,10.36
2022-09-17T06:14:53.137Z,10.34
2022-09-17T06:15:53.219Z,10.32
2022-09-17T06:16:53.101Z,10.32
2022-09-17T06:17:53.110Z,10.31
2022-09-17T06:18:53.105Z,10.29
2022-09-17T06:19:53.061Z,10.29
2022-09-17T06:20:53.068Z,10.32
2022-09-17T06:21:53.059Z,10.34
2022-09-17T06:22:53.031Z,10.35
2022-09-17T06:23:53.035Z,10.38
2022-09-17T06:24:53.041Z,10.38
2022-09-17T06:25:53.000Z,10.39
2022-09-17T06:26:52.990Z,10.43
2022-09-17T06:27:53.011Z,10.47
2022-09-17T06:28:52.987Z,10.51
2022-09-17T06:29:52.968Z,10.52
2022-09-17T06:30:52.975Z,10.57
2022-09-17T06:31:53.015Z,10.62
2022-09-17T06:32:52.942Z,10.60
2022-09-17T06:33:54.174Z,10.62
2022-09-17T06:34:52.895Z,10.62
2022-09-17T06:35:52.957Z,10.66
2022-09-17T06:36:52.915Z,10.68
2022-09-17T06:37:52.869Z,10.70
2022-09-17T06:38:52.844Z,10.76
2022-09-17T06:39:52.904Z,10.78
2022-09-17T06:40:52.837Z,10.80
2022-09-17T06:41:52.820Z,10.83
2022-09-17T06:42:53.420Z,10.88
2022-09-17T06:43:52.797Z,10.93
2022-09-17T06:44:52.837Z,10.95
2022-09-17T06:45:52.820Z,11.01
2022-09-17T06:46:52.798Z,11.02
2022-09-17T06:47:52.791Z,11.09
2022-09-17T06:48:52.789Z,11.13
2022-09-17T06:49:52.763Z,11.17
2022-09-17T06:50:52.720Z,11.20
2022-09-17T06:51:52.716Z,11.27
2022-09-17T06:52:52.692Z,11.31
2022-09-17T06:53:52.722Z,11.38
2022-09-17T06:54:52.712Z,11.45
2022-09-17T06:55:52.691Z,11.53
2022-09-17T06:56:52.639Z,11.60
2022-09-17T06:57:52.719Z,11.67
2022-09-17T06:58:52.693Z,11.77
2022-09-17T06:59:52.616Z,11.79
2022-09-17T07:00:52.676Z,11.79
2022-09-17T07:01:52.640Z,11.78
2022-09-17T07:02:52.581Z,11.77
2022-09-17T07:03:52.566Z,11.79
2022-09-17T07:04:52.587Z,11.75
2022-09-17T07:05:52.565Z,11.75
2022-09-17T07:06:52.582Z,11.78
2022-09-17T07:07:52.523Z,11.77
2022-09-17T07:08:52.524Z,11.74
2022-09-17T07:09:52.510Z,11.72
2022-09-17T07:10:52.522Z,11.72
2022-09-17T07:11:52.474Z,11.75
2022-09-17T07:12:52.471Z,11.79
2022-09-17T07:13:52.479Z,11.79
2022-09-17T07:14:52.435Z,11.88
2022-09-17T07:15:52.587Z,11.93
2022-09-17T07:16:52.454Z,11.93
2022-09-17T07:17:52.411Z,11.87
2022-09-17T07:18:52.399Z,11.94
2022-09-17T07:19:52.387Z,11.96
2022-09-17T07:20:52.376Z,11.98
2022-09-17T07:21:52.395Z,12.00
2022-09-17T07:22:52.373Z,11.97
2022-09-17T07:23:52.347Z,11.97
2022-09-17T07:24:52.336Z,11.93
2022-09-17T07:25:52.323Z,11.88
2022-09-17T07:26:52.352Z,11.90
2022-09-17T07:27:52.305Z,11.82
2022-09-17T07:28:52.280Z,11.87
2022-09-17T07:29:52.267Z,11.88
2022-09-17T07:30:52.329Z,11.85
2022-09-17T07:31:52.300Z,11.82
2022-09-17T07:32:52.312Z,11.90
2022-09-17T07:33:52.224Z,11.98
2022-09-17T07:34:52.212Z,12.00
2022-09-17T07:35:52.288Z,12.07
2022-09-17T07:36:52.194Z,12.13
2022-09-17T07:37:52.210Z,12.22
2022-09-17T07:38:52.165Z,12.30
2022-09-17T07:39:52.213Z,12.34
2022-09-17T07:40:52.140Z,12.37
2022-09-17T07:41:52.140Z,12.40
2022-09-17T07:42:52.191Z,12.48
2022-09-17T07:43:52.113Z,12.54
2022-09-17T07:44:52.134Z,12.55
2022-09-17T07:45:52.094Z,12.63
2022-09-17T07:46:52.117Z,12.67
2022-09-17T07:47:52.091Z,12.67
2022-09-17T07:48:52.068Z,12.67
2022-09-17T07:49:52.060Z,12.71
2022-09-17T07:50:52.076Z,12.70
2022-09-17T07:51:52.018Z,12.66
2022-09-17T07:52:52.034Z,12.67
2022-09-17T07:53:52.022Z,12.77
2022-09-17T07:54:52.016Z,12.87
2022-09-17T07:55:52.015Z,12.92
2022-09-17T07:56:51.984Z,12.98
2022-09-17T07:57:51.959Z,12.99
2022-09-17T07:58:51.962Z,13.04
2022-09-17T07:59:51.962Z,13.07
2022-09-17T08:00:51.966Z,13.10
2022-09-17T08:01:52.010Z,13.13
2022-09-17T08:02:52.071Z,13.12
2022-09-17T08:03:51.890Z,13.14
2022-09-17T08:04:51.909Z,13.21
2022-09-17T08:05:51.866Z,13.25
2022-09-17T08:06:51.865Z,13.32
2022-09-17T08:07:51.843Z,13.38
2022-09-17T08:08:51.824Z,13.41
2022-09-17T08:09:51.845Z,13.38
2022-09-17T08:10:51.811Z,13.43
2022-09-17T08:11:55.589Z,13.38
2022-09-17T08:12:51.778Z,13.38
2022-09-17T08:13:51.774Z,13.43
2022-09-17T08:14:51.771Z,13.44
2022-09-17T08:15:51.779Z,13.46
2022-09-17T08:16:51.801Z,13.53
2022-09-17T08:17:51.720Z,13.55
2022-09-17T08:18:51.734Z,13.62
2022-09-17T08:19:51.701Z,13.71
2022-09-17T08:20:51.734Z,13.73
2022-09-17T08:21:51.692Z,13.75
2022-09-17T08:22:51.660Z,13.81
2022-09-17T08:23:51.660Z,13.83
2022-09-17T08:24:51.725Z,13.81
2022-09-17T08:25:51.642Z,13.76
2022-09-17T08:26:51.630Z,13.73
2022-09-17T08:27:51.608Z,13.80
2022-09-17T08:28:51.593Z,13.80
2022-09-17T08:29:51.594Z,13.84
2022-09-17T08:30:51.675Z,13.86
2022-09-17T08:31:51.667Z,13.90
2022-09-17T08:32:51.577Z,13.93
2022-09-17T08:33:51.560Z,13.93
2022-09-17T08:34:51.517Z,13.93
2022-09-17T08:35:51.523Z,13.91
2022-09-17T08:36:51.530Z,13.93
2022-09-17T08:37:51.505Z,13.96
2022-09-17T08:38:51.474Z,13.98
2022-09-17T08:39:51.510Z,14.01
2022-09-17T08:40:51.455Z,14.05
2022-09-17T08:41:51.502Z,14.08
2022-09-17T08:42:51.433Z,14.12
2022-09-17T08:43:51.438Z,14.20
2022-09-17T08:44:52.371Z,14.12
2022-09-17T08:45:51.405Z,14.16
2022-09-17T08:46:51.509Z,14.06
2022-09-17T08:47:51.404Z,14.11
2022-09-17T08:48:51.374Z,14.20
2022-09-17T08:49:51.378Z,14.27
2022-09-17T08:50:51.369Z,14.34
2022-09-17T08:51:51.345Z,14.36
2022-09-17T08:52:51.359Z,14.30
2022-09-17T08:53:51.322Z,14.34
2022-09-17T08:54:51.323Z,14.42
2022-09-17T08:55:51.282Z,14.53
2022-09-17T08:56:51.284Z,14.54
2022-09-17T08:57:51.280Z,14.46
2022-09-17T08:58:51.272Z,14.52
2022-09-17T08:59:51.259Z,14.48
2022-09-17T09:00:51.260Z,14.54
2022-09-17T09:01:51.378Z,14.60
2022-09-17T09:02:51.253Z,14.71
2022-09-17T09:03:51.237Z,14.80
2022-09-17T09:04:51.187Z,14.91
2022-09-17T09:05:51.202Z,14.94
2022-09-17T09:06:51.202Z,15.03
2022-09-17T09:07:51.191Z,15.07
2022-09-17T09:08:51.164Z,15.09
2022-09-17T09:09:51.155Z,15.03
2022-09-17T09:10:51.129Z,15.07
2022-09-17T09:11:51.116Z,15.00
2022-09-17T09:12:51.099Z,14.94
2022-09-17T09:13:51.170Z,14.82
2022-09-17T09:14:51.222Z,14.67
2022-09-17T09:15:51.136Z,14.61
2022-09-17T09:16:51.092Z,14.63
2022-09-17T09:17:51.165Z,14.86
2022-09-17T09:18:51.019Z,15.00
2022-09-17T09:19:51.018Z,15.11
2022-09-17T09:20:51.010Z,15.18
2022-09-17T09:21:51.015Z,15.09
2022-09-17T09:22:51.052Z,15.04
2022-09-17T09:23:51.011Z,14.97
2022-09-17T09:24:50.973Z,15.00
2022-09-17T09:25:50.959Z,15.01
2022-09-17T09:26:54.193Z,14.98
2022-09-17T09:27:50.984Z,14.90
2022-09-17T09:28:50.962Z,14.78
2022-09-17T09:29:50.998Z,14.67
2022-09-17T09:30:50.914Z,14.60
2022-09-17T09:31:50.911Z,14.57
2022-09-17T09:32:50.910Z,14.74
2022-09-17T09:33:50.880Z,14.97
2022-09-17T09:34:50.861Z,15.04
2022-09-17T09:35:50.873Z,15.05
2022-09-17T09:36:50.842Z,15.04
2022-09-17T09:37:50.823Z,15.07
2022-09-17T09:38:50.821Z,15.13
2022-09-17T09:39:50.831Z,15.09
2022-09-17T09:40:50.787Z,15.11
2022-09-17T09:41:50.764Z,15.05
2022-09-17T09:42:50.762Z,15.12
2022-09-17T09:44:03.757Z,15.31
2022-09-17T09:44:50.773Z,15.51
2022-09-17T09:45:50.746Z,15.64
2022-09-17T09:46:51.024Z,15.78
2022-09-17T09:47:50.708Z,15.96
2022-09-17T09:48:50.710Z,16.14
2022-09-17T09:49:50.709Z,16.08
2022-09-17T09:51:07.152Z,15.91
2022-09-17T09:51:50.658Z,15.80
2022-09-17T09:52:50.658Z,15.66
2022-09-17T09:53:50.731Z,15.49
2022-09-17T09:54:50.677Z,15.49
2022-09-17T09:55:50.603Z,15.53
2022-09-17T09:56:50.648Z,15.68
2022-09-17T09:57:50.603Z,15.74
2022-09-17T09:58:50.602Z,15.86
2022-09-17T09:59:50.589Z,15.93
2022-09-17T10:00:50.590Z,16.08
2022-09-17T10:01:50.666Z,16.18
2022-09-17T10:02:50.570Z,16.29
2022-09-17T10:03:50.556Z,16.41
2022-09-17T10:04:53.469Z,16.47
2022-09-17T10:05:50.534Z,16.37
2022-09-17T10:06:50.494Z,16.23
2022-09-17T10:07:50.470Z,16.29
2022-09-17T10:08:50.468Z,16.40
2022-09-17T10:09:50.453Z,16.47
2022-09-17T10:10:50.470Z,16.41
2022-09-17T10:11:50.508Z,16.37
2022-09-17T10:12:50.418Z,16.42
2022-09-17T10:13:50.475Z,16.30
2022-09-17T10:14:50.389Z,16.14
2022-09-17T10:15:50.434Z,15.98
2022-09-17T10:16:50.391Z,15.68
2022-09-17T10:17:50.376Z,14.97
2022-09-17T10:18:50.381Z,14.52
2022-09-17T10:19:50.378Z,14.23
2022-09-17T10:20:50.328Z,13.81
2022-09-17T10:21:50.331Z,13.50
2022-09-17T10:22:50.317Z,13.36
2022-09-17T10:23:50.295Z,13.24
2022-09-17T10:24:50.320Z,13.24
2022-09-17T10:25:50.288Z,13.25
2022-09-17T10:26:50.285Z,13.29
2022-09-17T10:27:50.270Z,13.38
2022-09-17T10:28:50.242Z,13.66
2022-09-17T10:29:50.247Z,13.72
2022-09-17T10:30:50.208Z,13.88
2022-09-17T10:31:50.245Z,14.05
2022-09-17T10:32:50.227Z,14.24
2022-09-17T10:33:50.167Z,14.42
2022-09-17T10:34:50.228Z,14.52
2022-09-17T10:35:50.178Z,14.57
2022-09-17T10:36:50.158Z,14.60
2022-09-17T10:37:50.157Z,14.67
2022-09-17T10:38:50.125Z,14.83
2022-09-17T10:39:50.186Z,14.86
2022-09-17T10:40:50.184Z,14.87
2022-09-17T10:41:50.086Z,14.98
2022-09-17T10:42:50.109Z,15.07
2022-09-17T10:43:50.049Z,14.97
2022-09-17T10:44:50.074Z,14.95
2022-09-17T10:45:50.070Z,14.98
2022-09-17T10:46:50.090Z,14.98
2022-09-17T10:47:50.014Z,15.15
2022-09-17T10:48:50.050Z,15.22
2022-09-17T10:49:49.982Z,15.46
2022-09-17T10:50:49.990Z,15.64
2022-09-17T10:51:49.996Z,15.89
2022-09-17T10:52:49.966Z,16.11
2022-09-17T10:53:49.964Z,16.18
2022-09-17T10:54:49.949Z,16.17
2022-09-17T10:55:49.940Z,16.06
2022-09-17T10:56:49.908Z,15.93
2022-09-17T10:57:49.929Z,15.86
2022-09-17T10:58:49.926Z,15.77
2022-09-17T10:59:49.867Z,15.78
2022-09-17T11:00:49.959Z,15.88
2022-09-17T11:01:50.001Z,15.96
2022-09-17T11:02:49.952Z,16.08
2022-09-17T11:03:49.890Z,16.22
2022-09-17T11:04:49.815Z,16.40
2022-09-17T11:05:49.800Z,16.52
2022-09-17T11:06:49.820Z,16.62
2022-09-17T11:07:49.786Z,16.66
2022-09-17T11:08:49.767Z,16.48
2022-09-17T11:09:49.805Z,16.42
2022-09-17T11:10:49.750Z,16.54
2022-09-17T11:11:49.734Z,16.67
2022-09-17T11:12:49.735Z,16.72
2022-09-17T11:13:49.717Z,16.63
2022-09-17T11:14:49.743Z,16.63
2022-09-17T11:15:52.906Z,16.70
2022-09-17T11:16:49.738Z,16.69
2022-09-17T11:17:49.721Z,16.69
2022-09-17T11:18:49.702Z,16.85
2022-09-17T11:19:49.692Z,16.99
2022-09-17T11:20:49.663Z,17.00
2022-09-17T11:21:49.613Z,17.14
2022-09-17T11:22:49.653Z,17.25
2022-09-17T11:23:49.593Z,17.32
2022-09-17T11:24:49.592Z,17.39
2022-09-17T11:25:49.661Z,17.53
2022-09-17T11:26:49.590Z,17.73
2022-09-17T11:27:49.545Z,17.86
2022-09-17T11:28:49.570Z,17.70
2022-09-17T11:29:49.527Z,17.58
2022-09-17T11:30:49.543Z,17.51
2022-09-17T11:31:49.558Z,17.51
2022-09-17T11:32:49.502Z,17.58
2022-09-17T11:33:49.494Z,17.70
2022-09-17T11:34:49.481Z,17.74
2022-09-17T11:35:49.496Z,17.57
2022-09-17T11:36:49.443Z,17.46
2022-09-17T11:37:49.456Z,17.35
2022-09-17T11:38:49.504Z,17.43
2022-09-17T11:39:49.639Z,17.45
2022-09-17T11:40:49.414Z,17.12
2022-09-17T11:41:49.413Z,16.95
2022-09-17T11:42:49.380Z,16.60
2022-09-17T11:43:49.398Z,16.63
2022-09-17T11:44:49.396Z,16.87
2022-09-17T11:45:49.354Z,17.14
2022-09-17T11:46:49.424Z,17.18
2022-09-17T11:47:49.332Z,17.24
2022-09-17T11:48:49.314Z,17.02
2022-09-17T11:49:49.307Z,17.05
2022-09-17T11:50:49.285Z,17.20
2022-09-17T11:51:49.339Z,17.30
2022-09-17T11:52:49.525Z,17.38
2022-09-17T11:53:49.319Z,17.62
2022-09-17T11:54:49.247Z,17.68
2022-09-17T11:55:49.237Z,17.62
2022-09-17T11:56:49.243Z,17.83
2022-09-17T11:57:49.219Z,18.09
2022-09-17T11:58:49.197Z,18.13
2022-09-17T11:59:49.227Z,17.87
2022-09-17T12:00:49.252Z,17.63
2022-09-17T12:01:49.225Z,17.62
2022-09-17T12:02:49.219Z,17.33
2022-09-17T12:03:49.143Z,17.14
2022-09-17T12:04:49.158Z,17.00
2022-09-17T12:05:49.122Z,17.00
2022-09-17T12:06:49.113Z,17.24
2022-09-17T12:07:49.114Z,17.42
2022-09-17T12:08:49.127Z,17.33
2022-09-17T12:09:49.079Z,17.30
2022-09-17T12:10:49.093Z,17.39
2022-09-17T12:11:49.047Z,17.60
2022-09-17T12:12:50.609Z,17.77
2022-09-17T12:13:49.025Z,17.63
2022-09-17T12:14:49.020Z,17.55
2022-09-17T12:15:53.192Z,17.28
2022-09-17T12:16:49.038Z,17.35
2022-09-17T12:17:48.971Z,17.21
2022-09-17T12:18:48.988Z,17.12
2022-09-17T12:19:48.966Z,17.21
2022-09-17T12:20:48.973Z,17.18
2022-09-17T12:21:48.925Z,17.09
2022-09-17T12:22:48.932Z,17.07
2022-09-17T12:23:48.998Z,17.00
2022-09-17T12:24:48.934Z,16.85
2022-09-17T12:25:48.931Z,16.87
2022-09-17T12:26:48.870Z,16.73
2022-09-17T12:27:48.868Z,16.67
2022-09-17T12:28:48.880Z,16.55
2022-09-17T12:29:48.865Z,16.41
2022-09-17T12:30:48.824Z,16.26
2022-09-17T12:31:48.889Z,16.01
2022-09-17T12:32:48.825Z,15.59
2022-09-17T12:33:48.811Z,15.30
2022-09-17T12:34:48.849Z,15.09
2022-09-17T12:36:05.612Z,15.01
2022-09-17T12:36:48.783Z,14.80
2022-09-17T12:37:48.781Z,14.57
2022-09-17T12:38:48.840Z,14.19
2022-09-17T12:39:48.767Z,13.80
2022-09-17T12:40:48.726Z,13.48
2022-09-17T12:41:48.731Z,13.27
2022-09-17T12:42:48.716Z,12.94
2022-09-17T12:43:48.684Z,12.96
2022-09-17T12:44:48.741Z,12.85
2022-09-17T12:45:50.758Z,12.99
2022-09-17T12:46:48.959Z,13.04
2022-09-17T12:47:48.698Z,13.10
2022-09-17T12:48:48.673Z,13.36
2022-09-17T12:49:48.646Z,13.66
2022-09-17T12:50:48.619Z,13.68
2022-09-17T12:51:48.617Z,13.93
2022-09-17T12:52:48.580Z,14.11